createdAt,value
2023-02-09T00:02:18.612Z,31.80
2023-02-09T00:04:46.580Z,37.10
2023-02-09T00:07:14.457Z,30.80
2023-02-09T00:09:42.428Z,30.70
2023-02-09T00:12:28.833Z,32.50
2023-02-09T00:14:56.957Z,27.40
2023-02-09T00:17:25.044Z,25.70
2023-02-09T00:19:55.922Z,32.70
2023-02-09T00:22:23.901Z,30.30
2023-02-09T00:24:51.997Z,29.60
2023-02-09T00:27:20.276Z,28.70
2023-02-09T00:29:48.348Z,29.60
2023-02-09T00:32:18.336Z,23.40
2023-02-09T00:34:46.388Z,23.00
2023-02-09T00:37:14.359Z,25.20
2023-02-09T00:39:42.302Z,22.50
2023-02-09T00:42:11.342Z,25.50
2023-02-09T00:44:40.429Z,30.70
2023-02-09T00:47:09.269Z,29.30
2023-02-09T00:49:37.482Z,27.70
2023-02-09T00:52:05.514Z,27.40
2023-02-09T00:54:33.516Z,22.30
2023-02-09T00:57:05.405Z,23.30
2023-02-09T00:59:35.829Z,21.90
2023-02-09T01:02:04.018Z,31.50
2023-02-09T01:04:32.448Z,24.20
2023-02-09T01:07:00.537Z,18.30
2023-02-09T01:09:28.952Z,24.40
2023-02-09T01:11:56.867Z,25.30
2023-02-09T01:14:24.934Z,24.20
2023-02-09T01:16:53.003Z,25.30
2023-02-09T01:19:20.963Z,26.60
2023-02-09T01:21:49.349Z,24.70
2023-02-09T01:24:17.472Z,26.00
2023-02-09T01:26:45.460Z,19.70
2023-02-09T01:29:15.364Z,18.90
2023-02-09T01:31:43.890Z,21.60
2023-02-09T01:34:14.965Z,21.90
2023-02-09T01:36:43.467Z,18.60
2023-02-09T01:39:13.181Z,14.50
2023-02-09T01:41:41.839Z,17.00
2023-02-09T01:44:11.389Z,19.90
2023-02-09T01:46:39.782Z,16.70
2023-02-09T01:49:12.695Z,16.10
2023-02-09T01:52:01.074Z,18.50
2023-02-09T01:54:38.311Z,15.80
2023-02-09T01:57:11.188Z,14.10
2023-02-09T01:59:42.676Z,10.90
2023-02-09T02:02:11.670Z,12.10
2023-02-09T02:04:41.984Z,12.70
2023-02-09T02:07:16.638Z,11.20
2023-02-09T02:09:46.526Z,15.40
2023-02-09T02:12:14.476Z,13.80
2023-02-09T02:14:42.779Z,18.90
2023-02-09T02:17:38.198Z,20.20
2023-02-09T02:20:48.395Z,14.90
2023-02-09T02:23:34.880Z,29.30
2023-02-09T02:26:23.626Z,24.90
2023-02-09T02:29:36.254Z,19.40
2023-02-09T02:32:36.481Z,22.00
2023-02-09T02:35:18.582Z,20.00
2023-02-09T02:38:17.609Z,26.70
2023-02-09T02:40:58.601Z,24.90
2023-02-09T02:43:32.800Z,23.20
2023-02-09T02:46:05.972Z,21.00
2023-02-09T02:48:51.567Z,20.80
2023-02-09T02:51:42.760Z,20.70
2023-02-09T02:54:18.502Z,25.90
2023-02-09T02:56:52.239Z,24.40
2023-02-09T02:59:28.849Z,22.00
2023-02-09T03:02:20.316Z,24.40
2023-02-09T03:04:52.915Z,24.80
2023-02-09T03:07:21.043Z,37.00
2023-02-09T03:09:51.003Z,32.20
2023-02-09T03:12:31.142Z,28.40
2023-02-09T03:15:22.043Z,28.60
2023-02-09T03:18:08.815Z,33.30
2023-02-09T03:21:11.219Z,28.20
2023-02-09T03:24:18.006Z,34.80
2023-02-09T03:26:51.916Z,39.50
2023-02-09T03:29:23.753Z,37.70
2023-02-09T03:31:52.329Z,45.70
2023-02-09T03:34:20.495Z,38.70
2023-02-09T03:36:56.271Z,42.50
2023-02-09T03:39:24.592Z,50.80
2023-02-09T03:41:52.510Z,43.70
2023-02-09T03:44:26.655Z,46.30
2023-02-09T03:47:03.491Z,44.90
2023-02-09T03:49:36.601Z,47.10
2023-02-09T03:52:05.987Z,47.10
2023-02-09T03:54:34.016Z,48.40
2023-02-09T03:57:02.046Z,46.20
2023-02-09T03:59:30.533Z,49.90
2023-02-09T04:01:59.126Z,45.00
2023-02-09T04:04:27.512Z,54.00
2023-02-09T04:06:56.378Z,51.20
2023-02-09T04:09:26.399Z,51.70
2023-02-09T04:11:54.778Z,49.20
2023-02-09T04:14:23.233Z,41.00
2023-02-09T04:16:51.172Z,53.30
2023-02-09T04:19:19.117Z,50.40
2023-02-09T04:21:47.045Z,55.40
2023-02-09T04:24:15.086Z,48.80
2023-02-09T04:26:43.114Z,55.30
2023-02-09T04:29:11.103Z,52.60
2023-02-09T04:31:39.253Z,54.20
2023-02-09T04:34:07.310Z,52.30
2023-02-09T04:36:35.197Z,56.70
2023-02-09T04:39:03.417Z,58.30
2023-02-09T04:41:31.398Z,55.00
2023-02-09T04:43:59.914Z,58.30
2023-02-09T04:46:27.928Z,55.60
2023-02-09T04:48:55.889Z,57.60
2023-02-09T04:51:23.858Z,51.90
2023-02-09T04:53:51.923Z,58.60
2023-02-09T04:56:19.902Z,53.20
2023-02-09T04:59:06.504Z,53.20
2023-02-09T05:01:34.549Z,57.00
2023-02-09T05:04:02.693Z,59.70
2023-02-09T05:06:30.796Z,54.70
2023-02-09T05:08:58.925Z,52.70
2023-02-09T05:11:26.898Z,49.30
2023-02-09T05:13:56.224Z,52.80
2023-02-09T05:16:24.312Z,46.80
2023-02-09T05:18:52.327Z,50.90
2023-02-09T05:21:20.312Z,58.20
2023-02-09T05:23:48.528Z,50.10
2023-02-09T05:26:16.803Z,38.50
2023-02-09T05:28:45.344Z,38.30
2023-02-09T05:31:13.379Z,48.10
2023-02-09T05:33:41.368Z,40.60
2023-02-09T05:36:09.878Z,50.70
2023-02-09T05:38:38.983Z,42.70
2023-02-09T05:41:09.386Z,40.30
2023-02-09T05:43:38.148Z,41.40
2023-02-09T05:46:08.248Z,43.50
2023-02-09T05:48:36.614Z,58.90
2023-02-09T05:51:04.962Z,48.80
2023-02-09T05:53:32.848Z,52.20
2023-02-09T05:56:00.852Z,51.70
2023-02-09T05:58:28.804Z,60.20
2023-02-09T06:00:56.809Z,53.70
2023-02-09T06:03:24.904Z,74.10
2023-02-09T06:05:52.891Z,59.90
2023-02-09T06:08:20.864Z,67.00
2023-02-09T06:10:48.770Z,60.30
2023-02-09T06:13:16.817Z,55.80
2023-02-09T06:15:44.875Z,67.00
2023-02-09T06:18:12.900Z,77.00
2023-02-09T06:20:40.901Z,72.70
2023-02-09T06:23:08.893Z,74.90
2023-02-09T06:25:41.751Z,73.40
2023-02-09T06:28:09.713Z,72.80
2023-02-09T06:30:37.775Z,69.20
2023-02-09T06:33:05.953Z,74.50
2023-02-09T06:35:34.010Z,76.20
2023-02-09T06:38:01.958Z,66.30
2023-02-09T06:40:30.147Z,65.30
2023-02-09T06:42:58.885Z,69.70
2023-02-09T06:45:26.948Z,57.80
2023-02-09T06:47:55.102Z,65.30
2023-02-09T06:50:23.388Z,67.80
2023-02-09T06:52:54.587Z,78.50
2023-02-09T06:55:23.863Z,91.80
2023-02-09T06:57:52.225Z,75.70
2023-02-09T07:00:22.652Z,67.00
2023-02-09T07:02:51.698Z,69.30
2023-02-09T07:05:20.701Z,83.70
2023-02-09T07:07:48.697Z,70.10
2023-02-09T07:10:18.260Z,61.40
2023-02-09T07:15:34.759Z,65.50
2023-02-09T07:18:04.183Z,71.50
2023-02-09T07:20:32.279Z,75.00
2023-02-09T07:23:01.740Z,65.00
2023-02-09T07:25:29.996Z,67.90
2023-02-09T07:27:59.131Z,57.10
2023-02-09T07:30:28.436Z,76.10
2023-02-09T07:32:59.535Z,62.60
2023-02-09T07:35:27.524Z,73.40
2023-02-09T07:37:56.062Z,65.20
2023-02-09T07:40:24.688Z,66.90
2023-02-09T07:42:53.057Z,70.80
2023-02-09T07:45:21.016Z,74.80
2023-02-09T07:47:49.434Z,68.60
2023-02-09T07:50:19.147Z,74.90
2023-02-09T07:52:48.183Z,66.40
2023-02-09T07:55:16.544Z,71.80
2023-02-09T07:57:44.513Z,63.40
2023-02-09T08:00:13.501Z,67.20
2023-02-09T08:02:45.211Z,65.70
2023-02-09T08:05:20.710Z,77.90
2023-02-09T08:07:48.768Z,72.70
2023-02-09T08:10:19.072Z,76.30
2023-02-09T08:13:00.170Z,83.70
2023-02-09T08:15:43.049Z,74.50
2023-02-09T08:18:17.539Z,82.80
2023-02-09T08:20:47.724Z,88.20
2023-02-09T08:23:22.802Z,92.20
2023-02-09T08:26:00.237Z,86.30
2023-02-09T08:28:42.897Z,86.80
2023-02-09T08:31:14.244Z,80.00
2023-02-09T08:33:43.611Z,80.50
2023-02-09T08:36:13.486Z,79.30
2023-02-09T08:38:41.590Z,75.30
2023-02-09T08:41:12.561Z,78.10
2023-02-09T08:43:41.123Z,77.60
2023-02-09T08:46:12.930Z,76.10
2023-02-09T08:48:43.471Z,76.80
2023-02-09T08:51:13.773Z,77.90
2023-02-09T08:53:43.421Z,81.20
2023-02-09T08:56:11.650Z,78.30
2023-02-09T08:58:39.780Z,81.90
2023-02-09T09:01:07.988Z,97.60
2023-02-09T09:03:36.346Z,105.20
2023-02-09T09:06:06.627Z,96.70
2023-02-09T09:08:36.235Z,90.30
2023-02-09T09:11:06.330Z,90.70
2023-02-09T09:13:34.414Z,89.20
2023-02-09T09:16:04.871Z,93.00
2023-02-09T09:18:33.659Z,98.40
2023-02-09T09:21:02.228Z,88.40
2023-02-09T09:23:30.168Z,106.70
2023-02-09T09:26:03.358Z,86.60
2023-02-09T09:28:31.787Z,92.30
2023-02-09T09:31:05.828Z,97.10
2023-02-09T09:33:33.798Z,101.60
2023-02-09T09:36:03.164Z,106.60
2023-02-09T09:38:31.177Z,115.40
2023-02-09T09:40:59.032Z,91.90
2023-02-09T09:43:39.886Z,110.50
2023-02-09T09:46:15.260Z,89.20
2023-02-09T09:48:52.519Z,98.10
2023-02-09T09:51:34.848Z,97.30
2023-02-09T09:54:06.342Z,107.30
2023-02-09T09:56:34.519Z,81.80
2023-02-09T09:59:02.639Z,77.60
2023-02-09T10:01:33.015Z,77.10
2023-02-09T10:04:13.429Z,70.70
2023-02-09T10:06:44.486Z,71.50
2023-02-09T10:09:21.307Z,64.50
2023-02-09T10:12:05.882Z,66.90
2023-02-09T10:14:33.860Z,60.60
2023-02-09T10:17:02.301Z,63.80
2023-02-09T10:19:30.514Z,54.30
2023-02-09T10:21:58.804Z,65.40
2023-02-09T10:24:29.619Z,51.70
2023-02-09T10:27:06.073Z,47.20
2023-02-09T10:32:23.750Z,42.40
2023-02-09T10:34:54.981Z,44.80
2023-02-09T10:37:43.882Z,45.50
2023-02-09T10:40:22.476Z,47.90
2023-02-09T10:43:02.602Z,48.10
2023-02-09T10:45:42.742Z,43.80
2023-02-09T10:48:13.438Z,42.10
2023-02-09T10:50:53.302Z,47.00
2023-02-09T10:53:24.718Z,53.30
2023-02-09T10:56:05.170Z,48.90
2023-02-09T10:58:36.310Z,46.50
2023-02-09T11:01:24.360Z,42.10
2023-02-09T11:04:04.933Z,39.10
2023-02-09T11:06:46.997Z,51.20
2023-02-09T11:09:30.885Z,34.40
2023-02-09T11:11:59.167Z,35.40
2023-02-09T11:14:27.868Z,42.40
2023-02-09T11:17:01.968Z,41.50
2023-02-09T11:19:41.958Z,38.20
2023-02-09T11:22:16.490Z,25.90
2023-02-09T11:24:59.544Z,30.80
2023-02-09T11:27:49.205Z,27.80
2023-02-09T11:30:36.586Z,30.10
2023-02-09T11:33:31.480Z,29.60
2023-02-09T11:36:05.421Z,23.60
2023-02-09T11:38:51.419Z,19.80
2023-02-09T11:41:47.339Z,20.50
2023-02-09T11:44:25.805Z,17.90
2023-02-09T11:47:05.709Z,23.60
2023-02-09T11:49:53.889Z,17.00
2023-02-09T11:52:29.929Z,19.60
2023-02-09T11:55:02.703Z,18.20
2023-02-09T11:57:40.596Z,19.50
2023-02-09T12:00:18.215Z,18.90
2023-02-09T12:03:04.685Z,17.50
2023-02-09T12:05:33.316Z,26.10
2023-02-09T12:08:22.442Z,27.10
2023-02-09T12:11:12.775Z,22.50
2023-02-09T12:14:11.868Z,26.70
2023-02-09T12:16:44.230Z,23.70
2023-02-09T12:19:33.851Z,28.00
2023-02-09T12:22:43.038Z,30.00
2023-02-09T12:25:17.100Z,33.20
2023-02-09T12:28:18.014Z,30.50
2023-02-09T12:30:46.174Z,24.20
2023-02-09T12:33:18.777Z,22.70
2023-02-09T12:36:16.182Z,28.80
2023-02-09T12:41:20.919Z,25.50
2023-02-09T12:43:50.815Z,23.40
2023-02-09T12:46:22.067Z,27.60
2023-02-09T12:49:08.934Z,27.50
2023-02-09T12:52:03.026Z,31.50
2023-02-09T12:54:39.559Z,41.30
2023-02-09T12:59:53.309Z,36.00
2023-02-09T13:02:30.396Z,29.60
2023-02-09T13:05:11.453Z,25.10
2023-02-09T13:07:54.267Z,27.20
2023-02-09T13:10:34.004Z,28.00
2023-02-09T13:13:11.319Z,26.00
2023-02-09T13:16:09.979Z,27.30
2023-02-09T13:19:07.688Z,27.10
2023-02-09T13:22:03.697Z,34.90
2023-02-09T13:25:00.875Z,26.90
2023-02-09T13:27:30.204Z,53.20
2023-02-09T13:29:59.914Z,31.10
2023-02-09T13:33:03.198Z,27.00
2023-02-09T13:35:38.305Z,25.60
2023-02-09T13:38:30.185Z,26.50
2023-02-09T13:40:58.564Z,27.40
2023-02-09T13:43:36.911Z,32.00
2023-02-09T13:46:06.014Z,24.60
2023-02-09T13:48:37.595Z,24.70
2023-02-09T13:51:21.280Z,23.10
2023-02-09T13:54:01.201Z,23.60
2023-02-09T13:56:31.731Z,25.90
2023-02-09T13:59:00.458Z,25.00
2023-02-09T14:01:32.762Z,26.70
2023-02-09T14:04:07.128Z,25.50
2023-02-09T14:06:52.047Z,29.90
2023-02-09T14:09:28.777Z,36.00
2023-02-09T14:12:02.143Z,27.30
2023-02-09T14:15:02.740Z,23.60
2023-02-09T14:17:35.044Z,28.50
2023-02-09T14:20:04.324Z,23.70
2023-02-09T14:22:38.150Z,22.10
2023-02-09T14:25:15.316Z,27.20
2023-02-09T14:27:47.888Z,26.70
2023-02-09T14:30:17.345Z,19.30
2023-02-09T14:32:48.309Z,21.80
2023-02-09T14:35:17.455Z,22.10
2023-02-09T14:37:46.211Z,25.00
2023-02-09T14:40:28.457Z,21.30
2023-02-09T14:43:07.106Z,20.00
2023-02-09T14:45:37.616Z,24.00
2023-02-09T14:48:41.008Z,20.80
2023-02-09T14:51:15.519Z,28.70
2023-02-09T14:53:44.229Z,21.90
2023-02-09T14:56:30.878Z,21.90
2023-02-09T14:58:58.897Z,22.00
2023-02-09T15:01:26.884Z,26.40
2023-02-09T15:03:55.060Z,19.90
2023-02-09T15:06:23.887Z,22.90
2023-02-09T15:08:51.920Z,24.60
2023-02-09T15:11:42.746Z,24.80
2023-02-09T15:14:11.765Z,24.60
2023-02-09T15:16:39.850Z,21.40
2023-02-09T15:19:15.145Z,25.60
2023-02-09T15:21:43.075Z,22.90
2023-02-09T15:24:11.094Z,22.70
2023-02-09T15:26:39.544Z,22.00
2023-02-09T15:29:15.895Z,24.10
2023-02-09T15:31:43.934Z,21.60
2023-02-09T15:34:14.018Z,25.30
2023-02-09T15:36:42.747Z,17.50
2023-02-09T15:39:18.727Z,19.60
2023-02-09T15:42:05.489Z,20.00
2023-02-09T15:44:52.086Z,18.60
2023-02-09T15:47:39.118Z,18.40
2023-02-09T15:50:07.402Z,21.80
2023-02-09T15:52:35.460Z,47.20
2023-02-09T15:55:03.738Z,28.40
2023-02-09T15:57:31.875Z,37.10
2023-02-09T15:59:59.730Z,25.60
2023-02-09T16:02:27.832Z,15.90
2023-02-09T16:04:55.929Z,18.60
2023-02-09T16:07:26.252Z,22.40
2023-02-09T16:09:54.284Z,19.70
2023-02-09T16:12:22.285Z,20.70
2023-02-09T16:14:52.337Z,21.50
2023-02-09T16:17:21.280Z,21.30
2023-02-09T16:19:49.364Z,26.40
2023-02-09T16:22:17.463Z,24.90
2023-02-09T16:24:46.369Z,16.30
2023-02-09T16:27:29.726Z,13.10
2023-02-09T16:29:58.892Z,17.80
2023-02-09T16:32:28.746Z,15.30
2023-02-09T16:35:07.342Z,12.90
2023-02-09T16:37:36.322Z,14.70
2023-02-09T16:40:14.904Z,13.80
2023-02-09T16:42:44.063Z,18.90
2023-02-09T16:45:13.582Z,17.20
2023-02-09T16:47:45.699Z,17.00
2023-02-09T16:50:21.963Z,19.00
2023-02-09T16:52:52.721Z,15.50
2023-02-09T16:55:34.938Z,19.00
2023-02-09T16:58:04.920Z,14.70
2023-02-09T17:00:37.038Z,25.00
2023-02-09T17:03:27.895Z,15.40
2023-02-09T17:05:57.438Z,22.10
2023-02-09T17:08:32.004Z,17.20
2023-02-09T17:11:02.604Z,14.50
2023-02-09T17:13:31.437Z,16.70
2023-02-09T17:16:02.430Z,21.20
2023-02-09T17:18:39.181Z,21.40
2023-02-09T17:21:09.988Z,22.90
2023-02-09T17:23:37.969Z,30.00
2023-02-09T17:26:06.002Z,19.50
2023-02-09T17:28:34.510Z,25.10
2023-02-09T17:31:11.594Z,18.50
2023-02-09T17:33:39.647Z,32.00
2023-02-09T17:36:25.976Z,22.40
2023-02-09T17:38:57.758Z,24.40
2023-02-09T17:41:33.663Z,20.00
2023-02-09T17:44:26.492Z,27.50
2023-02-09T17:47:03.817Z,21.20
2023-02-09T17:49:32.224Z,20.60
2023-02-09T17:52:00.326Z,21.00
2023-02-09T17:54:28.369Z,22.50
2023-02-09T17:56:56.344Z,23.70
2023-02-09T17:59:24.483Z,25.10
2023-02-09T18:01:55.696Z,19.10
2023-02-09T18:04:27.720Z,53.40
2023-02-09T18:06:57.755Z,24.60
2023-02-09T18:09:26.038Z,22.70
2023-02-09T18:12:02.208Z,22.10
2023-02-09T18:14:33.581Z,24.80
2023-02-09T18:17:01.934Z,16.90
2023-02-09T18:19:30.188Z,17.00
2023-02-09T18:22:00.458Z,19.10
2023-02-09T18:24:31.829Z,19.30
2023-02-09T18:27:00.108Z,29.30
2023-02-09T18:29:31.005Z,26.90
2023-02-09T18:32:01.405Z,26.00
2023-02-09T18:34:30.199Z,28.60
2023-02-09T18:36:58.789Z,23.40
2023-02-09T18:39:26.866Z,22.20
2023-02-09T18:41:55.256Z,21.60
2023-02-09T18:44:29.186Z,25.60
2023-02-09T18:47:00.700Z,24.40
2023-02-09T18:49:29.921Z,20.90
2023-02-09T18:51:59.339Z,20.60
2023-02-09T18:54:29.109Z,29.10
2023-02-09T18:56:57.282Z,26.40
2023-02-09T18:59:30.411Z,26.60
2023-02-09T19:01:59.610Z,23.30
2023-02-09T19:04:27.845Z,27.50
2023-02-09T19:06:56.025Z,32.70
2023-02-09T19:09:24.072Z,27.90
2023-02-09T19:11:52.068Z,39.70
2023-02-09T19:14:38.321Z,41.20
2023-02-09T19:17:08.880Z,44.80
2023-02-09T19:19:38.912Z,41.50
2023-02-09T19:22:07.897Z,39.80
2023-02-09T19:24:36.343Z,45.80
2023-02-09T19:27:06.816Z,42.30
2023-02-09T19:29:37.402Z,41.40
2023-02-09T19:32:06.151Z,42.20
2023-02-09T19:34:38.779Z,37.80
2023-02-09T19:37:08.506Z,41.20
2023-02-09T19:39:38.632Z,54.40
2023-02-09T19:42:07.798Z,40.00
2023-02-09T19:44:36.361Z,45.00
2023-02-09T19:47:04.525Z,40.70
2023-02-09T19:49:34.297Z,38.70
2023-02-09T19:52:02.657Z,42.60
2023-02-09T19:54:31.306Z,44.00
2023-02-09T19:56:59.863Z,43.00
2023-02-09T19:59:27.798Z,40.00
2023-02-09T20:01:55.783Z,39.60
2023-02-09T20:04:23.974Z,44.80
2023-02-09T20:06:52.179Z,39.50
2023-02-09T20:09:20.232Z,47.30
2023-02-09T20:14:17.332Z,48.90
2023-02-09T20:16:45.421Z,70.70
2023-02-09T20:19:13.652Z,43.00
2023-02-09T20:21:43.124Z,43.40
2023-02-09T20:24:12.356Z,51.30
2023-02-09T20:26:41.672Z,51.30
2023-02-09T20:29:11.467Z,52.10
2023-02-09T20:31:41.767Z,41.20
2023-02-09T20:34:13.262Z,65.10
2023-02-09T20:36:45.233Z,53.50
2023-02-09T20:39:16.366Z,51.70
2023-02-09T20:42:08.561Z,54.60
2023-02-09T20:44:56.037Z,46.00
2023-02-09T20:47:27.059Z,45.00
2023-02-09T20:50:00.541Z,47.80
2023-02-09T20:52:29.975Z,49.20
2023-02-09T20:54:58.185Z,47.90
2023-02-09T20:57:29.684Z,46.90
2023-02-09T21:00:01.659Z,41.70
2023-02-09T21:02:29.907Z,37.90
2023-02-09T21:04:58.137Z,38.60
2023-02-09T21:07:26.225Z,45.70
2023-02-09T21:09:55.889Z,43.10
2023-02-09T21:12:24.196Z,34.70
2023-02-09T21:14:53.435Z,41.50
2023-02-09T21:17:21.368Z,37.90
2023-02-09T21:19:49.357Z,39.00
2023-02-09T21:22:17.611Z,38.20
2023-02-09T21:24:45.612Z,36.40
2023-02-09T21:27:14.228Z,34.50
2023-02-09T21:29:42.196Z,38.20
2023-02-09T21:32:11.293Z,45.70
2023-02-09T21:34:41.979Z,44.90
2023-02-09T21:37:12.992Z,38.10
2023-02-09T21:39:41.240Z,38.20
2023-02-09T21:42:29.692Z,39.30
2023-02-09T21:44:58.759Z,43.40
2023-02-09T21:47:32.038Z,34.90
2023-02-09T21:50:00.339Z,41.70
2023-02-09T21:52:29.948Z,42.30
2023-02-09T21:54:58.679Z,37.40
2023-02-09T21:57:26.804Z,35.90
2023-02-09T21:59:55.381Z,35.70
2023-02-09T22:02:23.330Z,31.70
2023-02-09T22:04:52.148Z,34.00
2023-02-09T22:07:20.070Z,38.90
2023-02-09T22:09:47.968Z,38.40
2023-02-09T22:12:15.867Z,30.40
2023-02-09T22:14:43.728Z,34.50
2023-02-09T22:17:11.658Z,32.00
2023-02-09T22:19:39.585Z,29.10
2023-02-09T22:22:07.650Z,32.00
2023-02-09T22:24:35.753Z,32.10
2023-02-09T22:27:04.482Z,34.00
2023-02-09T22:29:35.605Z,24.90
2023-02-09T22:32:03.690Z,30.00
2023-02-09T22:34:31.707Z,30.90
2023-02-09T22:36:59.612Z,29.80
2023-02-09T22:39:27.523Z,33.00
2023-02-09T22:41:58.152Z,29.90
2023-02-09T22:44:28.029Z,24.20
2023-02-09T22:46:56.919Z,28.50
2023-02-09T22:49:24.975Z,27.70
2023-02-09T22:51:52.934Z,30.30
2023-02-09T22:54:21.286Z,34.00
2023-02-09T22:56:49.477Z,32.00
2023-02-09T22:59:17.583Z,29.10
2023-02-09T23:01:45.744Z,28.00
2023-02-09T23:04:13.821Z,35.30
2023-02-09T23:06:41.886Z,35.10
2023-02-09T23:09:12.469Z,29.30
2023-02-09T23:11:41.078Z,29.50
2023-02-09T23:14:11.262Z,35.10
2023-02-09T23:16:41.838Z,27.40
2023-02-09T23:19:13.743Z,30.20
2023-02-09T23:21:44.553Z,34.00
2023-02-09T23:24:14.957Z,29.30
2023-02-09T23:26:43.545Z,25.50
2023-02-09T23:29:13.952Z,25.00
2023-02-09T23:31:43.115Z,30.00
2023-02-09T23:34:16.760Z,28.40
2023-02-09T23:36:45.123Z,29.80
2023-02-09T23:39:15.513Z,32.10
2023-02-09T23:41:43.611Z,26.00
2023-02-09T23:44:11.689Z,25.10
2023-02-09T23:46:40.021Z,31.20
2023-02-09T23:49:08.152Z,28.00
2023-02-09T23:51:37.374Z,23.70
2023-02-09T23:54:07.281Z,22.90
2023-02-09T23:56:38.136Z,27.60
2023-02-09T23:59:09.208Z,24.20
